sensor_id;sensor_type;location;lat;lon;timestamp;temperature;humidity
77803;DHT22;66993;48.256;16.422;2023-02-01T00:00:16;5.0;75.0
77803;DHT22;66993;48.256;16.422;2023-02-01T00:05:16;5.0;75.0
77803;DHT22;66993;48.256;16.422;2023-02-01T00:10:16;5.0;75.0
77803;DHT22;66993;48.256;16.422;2023-02-01T00:15:16;5.0;76.0
77803;DHT22;66993;48.256;16.422;2023-02-01T00:20:16;4.8;76.0
77803;DHT22;66993;48.256;16.422;2023-02-01T00:25:16;4.8;76.0
77803;DHT22;66993;48.256;16.422;2023-02-01T00:30:16;5.0;76.0
77803;DHT22;66993;48.256;16.422;2023-02-01T00:35:16;5.0;76.0
77803;DHT22;66993;48.256;16.422;2023-02-01T00:40:16;4.9;76.0
77803;DHT22;66993;48.256;16.422;2023-02-01T00:45:16;4.9;76.0
77803;DHT22;66993;48.256;16.422;2023-02-01T00:50:16;5.0;76.0
77803;DHT22;66993;48.256;16.422;2023-02-01T00:55:16;5.0;76.0
77803;DHT22;66993;48.256;16.422;2023-02-01T01:00:16;5.0;76.0
77803;DHT22;66993;48.256;16.422;2023-02-01T01:05:16;5.0;76.0
77803;DHT22;66993;48.256;16.422;2023-02-01T01:10:16;5.1;76.0
77803;DHT22;66993;48.256;16.422;2023-02-01T01:15:16;5.1;76.0
77803;DHT22;66993;48.256;16.422;2023-02-01T01:20:16;5.0;76.0
77803;DHT22;66993;48.256;16.422;2023-02-01T01:25:16;5.0;76.0
77803;DHT22;66993;48.256;16.422;2023-02-01T01:30:16;5.0;76.0
77803;DHT22;66993;48.256;16.422;2023-02-01T01:35:16;5.0;76.0
77803;DHT22;66993;48.256;16.422;2023-02-01T01:40:16;5.1;76.0
77803;DHT22;66993;48.256;16.422;2023-02-01T01:45:19;5.1;76.0
77803;DHT22;66993;48.256;16.422;2023-02-01T01:50:18;5.0;76.0
77803;DHT22;66993;48.256;16.422;2023-02-01T01:55:16;5.0;76.0
77803;DHT22;66993;48.256;16.422;2023-02-01T02:00:16;5.1;76.0
77803;DHT22;66993;48.256;16.422;2023-02-01T02:05:16;5.1;76.0
77803;DHT22;66993;48.256;16.422;2023-02-01T02:10:17;5.2;76.0
77803;DHT22;66993;48.256;16.422;2023-02-01T02:15:16;5.2;76.0
77803;DHT22;66993;48.256;16.422;2023-02-01T02:20:22;5.2;76.0
77803;DHT22;66993;48.256;16.422;2023-02-01T02:25:21;5.2;76.0
77803;DHT22;66993;48.256;16.422;2023-02-01T02:30:23;5.2;76.0
77803;DHT22;66993;48.256;16.422;2023-02-01T02:35:17;5.2;75.0
77803;DHT22;66993;48.256;16.422;2023-02-01T02:40:17;5.3;75.0
77803;DHT22;66993;48.256;16.422;2023-02-01T02:45:17;5.3;75.0
77803;DHT22;66993;48.256;16.422;2023-02-01T02:50:17;5.4;75.0
77803;DHT22;66993;48.256;16.422;2023-02-01T02:55:16;5.4;74.0
77803;DHT22;66993;48.256;16.422;2023-02-01T03:00:17;5.5;74.0
77803;DHT22;66993;48.256;16.422;2023-02-01T03:05:16;5.5;74.0
77803;DHT22;66993;48.256;16.422;2023-02-01T03:10:17;5.5;74.0
77803;DHT22;66993;48.256;16.422;2023-02-01T03:15:16;5.5;74.0
77803;DHT22;66993;48.256;16.422;2023-02-01T03:20:16;5.5;73.0
77803;DHT22;66993;48.256;16.422;2023-02-01T03:25:17;5.5;74.0
77803;DHT22;66993;48.256;16.422;2023-02-01T03:30:17;5.3;74.0
77803;DHT22;66993;48.256;16.422;2023-02-01T03:35:16;5.3;74.0
77803;DHT22;66993;48.256;16.422;2023-02-01T03:40:16;5.3;74.0
77803;DHT22;66993;48.256;16.422;2023-02-01T03:45:18;5.3;74.0
77803;DHT22;66993;48.256;16.422;2023-02-01T03:50:16;5.3;74.0
77803;DHT22;66993;48.256;16.422;2023-02-01T03:55:17;5.3;74.0
77803;DHT22;66993;48.256;16.422;2023-02-01T04:00:17;5.4;74.0
77803;DHT22;66993;48.256;16.422;2023-02-01T04:05:16;5.4;74.0
77803;DHT22;66993;48.256;16.422;2023-02-01T04:10:16;5.5;74.0
77803;DHT22;66993;48.256;16.422;2023-02-01T04:15:16;5.5;74.0
77803;DHT22;66993;48.256;16.422;2023-02-01T04:20:16;5.3;74.0
77803;DHT22;66993;48.256;16.422;2023-02-01T04:25:16;5.3;74.0
77803;DHT22;66993;48.256;16.422;2023-02-01T04:30:16;5.3;74.0
77803;DHT22;66993;48.256;16.422;2023-02-01T04:35:16;5.3;75.0
77803;DHT22;66993;48.256;16.422;2023-02-01T04:40:16;5.3;76.0
77803;DHT22;66993;48.256;16.422;2023-02-01T04:45:16;5.3;75.0
77803;DHT22;66993;48.256;16.422;2023-02-01T04:50:16;5.4;75.0
77803;DHT22;66993;48.256;16.422;2023-02-01T04:55:16;5.4;75.0
77803;DHT22;66993;48.256;16.422;2023-02-01T05:00:16;5.3;75.0
77803;DHT22;66993;48.256;16.422;2023-02-01T05:05:16;5.3;75.0
77803;DHT22;66993;48.256;16.422;2023-02-01T05:10:16;5.3;76.0
77803;DHT22;66993;48.256;16.422;2023-02-01T05:15:16;5.3;76.0
77803;DHT22;66993;48.256;16.422;2023-02-01T05:20:16;5.4;76.0
77803;DHT22;66993;48.256;16.422;2023-02-01T05:25:16;5.4;76.0
77803;DHT22;66993;48.256;16.422;2023-02-01T05:30:16;5.6;76.0
77803;DHT22;66993;48.256;16.422;2023-02-01T05:35:16;5.6;76.0
77803;DHT22;66993;48.256;16.422;2023-02-01T05:40:16;5.5;76.0
77803;DHT22;66993;48.256;16.422;2023-02-01T05:45:16;5.5;76.0
77803;DHT22;66993;48.256;16.422;2023-02-01T05:50:16;5.5;76.0
77803;DHT22;66993;48.256;16.422;2023-02-01T05:55:16;5.5;76.0
77803;DHT22;66993;48.256;16.422;2023-02-01T06:00:16;5.6;76.0
77803;DHT22;66993;48.256;16.422;2023-02-01T06:05:16;5.6;77.0
77803;DHT22;66993;48.256;16.422;2023-02-01T06:10:16;5.6;77.0
77803;DHT22;66993;48.256;16.422;2023-02-01T06:15:16;5.6;78.0
77803;DHT22;66993;48.256;16.422;2023-02-01T06:20:16;5.6;78.0
77803;DHT22;66993;48.256;16.422;2023-02-01T06:25:16;5.6;76.0
77803;DHT22;66993;48.256;16.422;2023-02-01T06:30:16;5.9;76.0
77803;DHT22;66993;48.256;16.422;2023-02-01T06:35:16;5.9;76.0
77803;DHT22;66993;48.256;16.422;2023-02-01T06:40:16;5.9;76.0
77803;DHT22;66993;48.256;16.422;2023-02-01T06:45:16;5.9;76.0
77803;DHT22;66993;48.256;16.422;2023-02-01T06:50:16;5.9;76.0
77803;DHT22;66993;48.256;16.422;2023-02-01T06:55:16;5.9;76.0
77803;DHT22;66993;48.256;16.422;2023-02-01T07:00:16;5.8;76.0
77803;DHT22;66993;48.256;16.422;2023-02-01T07:05:16;5.8;76.0
77803;DHT22;66993;48.256;16.422;2023-02-01T07:10:16;5.7;76.0
77803;DHT22;66993;48.256;16.422;2023-02-01T07:15:16;5.7;76.0
77803;DHT22;66993;48.256;16.422;2023-02-01T07:20:16;5.8;76.0
77803;DHT22;66993;48.256;16.422;2023-02-01T07:25:16;5.8;76.0
77803;DHT22;66993;48.256;16.422;2023-02-01T07:30:16;5.9;76.0
77803;DHT22;66993;48.256;16.422;2023-02-01T07:35:16;5.9;76.0
77803;DHT22;66993;48.256;16.422;2023-02-01T07:40:16;6.0;76.0
77803;DHT22;66993;48.256;16.422;2023-02-01T07:45:16;6.0;76.0
77803;DHT22;66993;48.256;16.422;2023-02-01T07:50:16;6.1;76.0
77803;DHT22;66993;48.256;16.422;2023-02-01T07:55:16;6.1;76.0
77803;DHT22;66993;48.256;16.422;2023-02-01T08:00:16;6.2;76.0
77803;DHT22;66993;48.256;16.422;2023-02-01T08:05:16;6.2;76.0
77803;DHT22;66993;48.256;16.422;2023-02-01T08:10:17;6.2;76.0
77803;DHT22;66993;48.256;16.422;2023-02-01T08:15:16;6.2;76.0
77803;DHT22;66993;48.256;16.422;2023-02-01T08:20:16;6.2;76.0
77803;DHT22;66993;48.256;16.422;2023-02-01T08:25:16;6.2;76.0
77803;DHT22;66993;48.256;16.422;2023-02-01T08:30:16;6.2;76.0
77803;DHT22;66993;48.256;16.422;2023-02-01T08:35:16;6.2;76.0
77803;DHT22;66993;48.256;16.422;2023-02-01T08:40:16;6.3;76.0
77803;DHT22;66993;48.256;16.422;2023-02-01T08:45:16;6.3;76.0
77803;DHT22;66993;48.256;16.422;2023-02-01T08:50:16;6.4;76.0
77803;DHT22;66993;48.256;16.422;2023-02-01T08:55:16;6.4;76.0
77803;DHT22;66993;48.256;16.422;2023-02-01T09:00:16;6.5;76.0
77803;DHT22;66993;48.256;16.422;2023-02-01T09:05:16;6.5;76.0
77803;DHT22;66993;48.256;16.422;2023-02-01T09:10:16;6.5;76.0
77803;DHT22;66993;48.256;16.422;2023-02-01T09:15:16;6.5;76.0
77803;DHT22;66993;48.256;16.422;2023-02-01T09:20:16;6.5;76.0
77803;DHT22;66993;48.256;16.422;2023-02-01T09:25:16;6.5;76.0
77803;DHT22;66993;48.256;16.422;2023-02-01T09:30:16;6.2;76.0
77803;DHT22;66993;48.256;16.422;2023-02-01T09:35:16;6.2;76.0
77803;DHT22;66993;48.256;16.422;2023-02-01T09:40:16;6.1;76.0
77803;DHT22;66993;48.256;16.422;2023-02-01T09:45:18;6.1;76.0
77803;DHT22;66993;48.256;16.422;2023-02-01T09:50:17;6.0;76.0
77803;DHT22;66993;48.256;16.422;2023-02-01T09:55:18;6.0;76.0
77803;DHT22;66993;48.256;16.422;2023-02-01T10:00:17;5.9;76.0
77803;DHT22;66993;48.256;16.422;2023-02-01T10:05:18;5.9;76.0
77803;DHT22;66993;48.256;16.422;2023-02-01T10:10:18;6.2;76.0
77803;DHT22;66993;48.256;16.422;2023-02-01T10:15:20;6.2;76.0
77803;DHT22;66993;48.256;16.422;2023-02-01T10:20:18;6.6;76.0
77803;DHT22;66993;48.256;16.422;2023-02-01T10:25:17;6.6;76.0
77803;DHT22;66993;48.256;16.422;2023-02-01T10:30:18;6.8;76.0
77803;DHT22;66993;48.256;16.422;2023-02-01T10:35:17;6.8;76.0
77803;DHT22;66993;48.256;16.422;2023-02-01T10:40:17;6.9;76.0
77803;DHT22;66993;48.256;16.422;2023-02-01T10:45:17;6.9;76.0
77803;DHT22;66993;48.256;16.422;2023-02-01T10:50:17;6.7;76.0
77803;DHT22;66993;48.256;16.422;2023-02-01T10:55:32;6.7;76.0
77803;DHT22;66993;48.256;16.422;2023-02-01T11:00:18;6.6;76.0
77803;DHT22;66993;48.256;16.422;2023-02-01T11:05:16;6.6;76.0
77803;DHT22;66993;48.256;16.422;2023-02-01T11:10:33;6.8;76.0
77803;DHT22;66993;48.256;16.422;2023-02-01T11:15:18;6.3;76.0
77803;DHT22;66993;48.256;16.422;2023-02-01T11:20:17;6.3;76.0
77803;DHT22;66993;48.256;16.422;2023-02-01T11:25:16;6.1;76.0
77803;DHT22;66993;48.256;16.422;2023-02-01T11:30:16;6.1;76.0
77803;DHT22;66993;48.256;16.422;2023-02-01T11:35:18;5.7;76.0
77803;DHT22;66993;48.256;16.422;2023-02-01T11:40:25;5.2;76.0
77803;DHT22;66993;48.256;16.422;2023-02-01T11:45:18;5.2;76.0
77803;DHT22;66993;48.256;16.422;2023-02-01T11:50:17;5.1;84.0
77803;DHT22;66993;48.256;16.422;2023-02-01T11:55:19;5.1;86.0
77803;DHT22;66993;48.256;16.422;2023-02-01T12:00:23;4.9;88.0
77803;DHT22;66993;48.256;16.422;2023-02-01T12:05:23;4.9;89.0
77803;DHT22;66993;48.256;16.422;2023-02-01T12:10:19;4.7;90.0
77803;DHT22;66993;48.256;16.422;2023-02-01T12:15:22;4.7;91.0
77803;DHT22;66993;48.256;16.422;2023-02-01T12:20:21;5.0;92.0
77803;DHT22;66993;48.256;16.422;2023-02-01T12:25:20;5.0;92.0
77803;DHT22;66993;48.256;16.422;2023-02-01T12:30:20;5.5;93.0
77803;DHT22;66993;48.256;16.422;2023-02-01T12:35:20;6.0;92.0
77803;DHT22;66993;48.256;16.422;2023-02-01T12:40:19;6.0;86.0
77803;DHT22;66993;48.256;16.422;2023-02-01T12:45:18;6.0;86.0
77803;DHT22;66993;48.256;16.422;2023-02-01T12:50:17;6.0;84.0
77803;DHT22;66993;48.256;16.422;2023-02-01T12:55:17;6.2;84.0
77803;DHT22;66993;48.256;16.422;2023-02-01T13:00:18;6.7;84.0
77803;DHT22;66993;48.256;16.422;2023-02-01T13:05:17;6.7;83.0
77803;DHT22;66993;48.256;16.422;2023-02-01T13:10:17;7.0;83.0
77803;DHT22;66993;48.256;16.422;2023-02-01T13:15:17;7.5;84.0
77803;DHT22;66993;48.256;16.422;2023-02-01T13:20:18;7.5;83.0
77803;DHT22;66993;48.256;16.422;2023-02-01T13:25:18;8.2;84.0
77803;DHT22;66993;48.256;16.422;2023-02-01T13:30:16;8.2;84.0
77803;DHT22;66993;48.256;16.422;2023-02-01T13:35:36;9.2;83.0
77803;DHT22;66993;48.256;16.422;2023-02-01T13:40:17;9.2;83.0
77803;DHT22;66993;48.256;16.422;2023-02-01T13:45:16;9.2;83.0
77803;DHT22;66993;48.256;16.422;2023-02-01T13:50:19;9.2;79.0
77803;DHT22;66993;48.256;16.422;2023-02-01T13:55:24;9.2;75.0
77803;DHT22;66993;48.256;16.422;2023-02-01T14:00:24;9.5;71.0
77803;DHT22;66993;48.256;16.422;2023-02-01T14:15:18;9.0;68.0
77803;DHT22;66993;48.256;16.422;2023-02-01T14:25:16;8.8;68.0
77803;DHT22;66993;48.256;16.422;2023-02-01T14:30:16;9.3;69.0
77803;DHT22;66993;48.256;16.422;2023-02-01T14:35:17;8.8;70.0
77803;DHT22;66993;48.256;16.422;2023-02-01T14:40:16;8.3;70.0
77803;DHT22;66993;48.256;16.422;2023-02-01T14:50:20;7.8;72.0
77803;DHT22;66993;48.256;16.422;2023-02-01T14:55:17;7.8;72.0
77803;DHT22;66993;48.256;16.422;2023-02-01T15:00:18;6.8;72.0
77803;DHT22;66993;48.256;16.422;2023-02-01T15:05:27;6.8;74.0
77803;DHT22;66993;48.256;16.422;2023-02-01T15:10:16;6.4;74.0
77803;DHT22;66993;48.256;16.422;2023-02-01T15:15:18;6.4;74.0
77803;DHT22;66993;48.256;16.422;2023-02-01T15:20:17;6.2;74.0
77803;DHT22;66993;48.256;16.422;2023-02-01T15:25:18;6.2;74.0
77803;DHT22;66993;48.256;16.422;2023-02-01T15:30:17;6.0;75.0
77803;DHT22;66993;48.256;16.422;2023-02-01T15:35:34;6.0;75.0
77803;DHT22;66993;48.256;16.422;2023-02-01T15:40:18;6.0;75.0
77803;DHT22;66993;48.256;16.422;2023-02-01T15:45:16;6.0;75.0
77803;DHT22;66993;48.256;16.422;2023-02-01T15:50:16;5.8;75.0
77803;DHT22;66993;48.256;16.422;2023-02-01T15:55:18;5.8;75.0
77803;DHT22;66993;48.256;16.422;2023-02-01T16:00:20;6.0;75.0
77803;DHT22;66993;48.256;16.422;2023-02-01T16:05:32;6.0;74.0
77803;DHT22;66993;48.256;16.422;2023-02-01T16:10:20;5.9;74.0
77803;DHT22;66993;48.256;16.422;2023-02-01T16:15:16;5.9;74.0
77803;DHT22;66993;48.256;16.422;2023-02-01T16:20:16;5.9;74.0
77803;DHT22;66993;48.256;16.422;2023-02-01T16:25:16;5.9;74.0
77803;DHT22;66993;48.256;16.422;2023-02-01T16:30:16;6.0;74.0
77803;DHT22;66993;48.256;16.422;2023-02-01T16:35:18;6.0;74.0
77803;DHT22;66993;48.256;16.422;2023-02-01T16:40:17;6.0;74.0
77803;DHT22;66993;48.256;16.422;2023-02-01T16:45:16;6.0;74.0
77803;DHT22;66993;48.256;16.422;2023-02-01T16:50:16;6.1;74.0
77803;DHT22;66993;48.256;16.422;2023-02-01T16:55:17;6.1;74.0
77803;DHT22;66993;48.256;16.422;2023-02-01T17:00:16;6.0;75.0
77803;DHT22;66993;48.256;16.422;2023-02-01T17:05:16;6.0;75.0
77803;DHT22;66993;48.256;16.422;2023-02-01T17:10:18;5.9;76.0
77803;DHT22;66993;48.256;16.422;2023-02-01T17:15:16;5.9;76.0
77803;DHT22;66993;48.256;16.422;2023-02-01T17:20:18;5.9;76.0
77803;DHT22;66993;48.256;16.422;2023-02-01T17:25:17;5.9;76.0
77803;DHT22;66993;48.256;16.422;2023-02-01T17:30:16;5.9;77.0
77803;DHT22;66993;48.256;16.422;2023-02-01T17:35:18;5.9;77.0
77803;DHT22;66993;48.256;16.422;2023-02-01T17:40:16;5.8;77.0
77803;DHT22;66993;48.256;16.422;2023-02-01T17:45:19;5.8;77.0
77803;DHT22;66993;48.256;16.422;2023-02-01T17:50:16;5.8;77.0
77803;DHT22;66993;48.256;16.422;2023-02-01T17:55:17;5.8;77.0
77803;DHT22;66993;48.256;16.422;2023-02-01T18:00:16;5.9;77.0
77803;DHT22;66993;48.256;16.422;2023-02-01T18:05:19;5.9;77.0
77803;DHT22;66993;48.256;16.422;2023-02-01T18:10:16;5.9;77.0
77803;DHT22;66993;48.256;16.422;2023-02-01T18:15:18;5.9;77.0
77803;DHT22;66993;48.256;16.422;2023-02-01T18:20:17;5.9;77.0
77803;DHT22;66993;48.256;16.422;2023-02-01T18:25:17;5.9;77.0
77803;DHT22;66993;48.256;16.422;2023-02-01T18:30:16;5.9;77.0
77803;DHT22;66993;48.256;16.422;2023-02-01T18:35:18;5.9;77.0
77803;DHT22;66993;48.256;16.422;2023-02-01T18:40:17;5.6;77.0
77803;DHT22;66993;48.256;16.422;2023-02-01T18:45:20;4.6;81.0
77803;DHT22;66993;48.256;16.422;2023-02-01T18:50:16;4.6;84.0
77803;DHT22;66993;48.256;16.422;2023-02-01T18:55:16;5.1;85.0
77803;DHT22;66993;48.256;16.422;2023-02-01T19:00:16;5.1;85.0
77803;DHT22;66993;48.256;16.422;2023-02-01T19:05:16;5.5;84.0
77803;DHT22;66993;48.256;16.422;2023-02-01T19:10:17;5.5;84.0
77803;DHT22;66993;48.256;16.422;2023-02-01T19:15:17;5.4;84.0
77803;DHT22;66993;48.256;16.422;2023-02-01T19:20:17;5.4;84.0
77803;DHT22;66993;48.256;16.422;2023-02-01T19:25:18;5.6;83.0
77803;DHT22;66993;48.256;16.422;2023-02-01T19:30:17;5.6;82.0
77803;DHT22;66993;48.256;16.422;2023-02-01T19:35:17;5.4;82.0
77803;DHT22;66993;48.256;16.422;2023-02-01T19:40:17;5.4;82.0
77803;DHT22;66993;48.256;16.422;2023-02-01T19:45:16;5.4;82.0
77803;DHT22;66993;48.256;16.422;2023-02-01T19:50:17;5.4;82.0
77803;DHT22;66993;48.256;16.422;2023-02-01T19:55:16;5.8;80.0
77803;DHT22;66993;48.256;16.422;2023-02-01T20:00:16;5.8;79.0
77803;DHT22;66993;48.256;16.422;2023-02-01T20:05:16;5.8;79.0
77803;DHT22;66993;48.256;16.422;2023-02-01T20:10:16;5.8;79.0
77803;DHT22;66993;48.256;16.422;2023-02-01T20:15:16;5.9;78.0
77803;DHT22;66993;48.256;16.422;2023-02-01T20:20:16;5.9;78.0
77803;DHT22;66993;48.256;16.422;2023-02-01T20:25:16;6.0;77.0
77803;DHT22;66993;48.256;16.422;2023-02-01T20:30:16;6.0;77.0
77803;DHT22;66993;48.256;16.422;2023-02-01T20:35:16;5.9;77.0
77803;DHT22;66993;48.256;16.422;2023-02-01T20:40:16;5.9;77.0
77803;DHT22;66993;48.256;16.422;2023-02-01T20:45:16;5.7;77.0
77803;DHT22;66993;48.256;16.422;2023-02-01T20:50:16;5.7;77.0
77803;DHT22;66993;48.256;16.422;2023-02-01T20:55:16;5.8;77.0
77803;DHT22;66993;48.256;16.422;2023-02-01T21:00:16;5.8;77.0
77803;DHT22;66993;48.256;16.422;2023-02-01T21:05:16;5.8;77.0
77803;DHT22;66993;48.256;16.422;2023-02-01T21:10:16;5.8;77.0
77803;DHT22;66993;48.256;16.422;2023-02-01T21:15:16;6.1;76.0
77803;DHT22;66993;48.256;16.422;2023-02-01T21:20:16;6.1;76.0
77803;DHT22;66993;48.256;16.422;2023-02-01T21:25:16;6.1;76.0
77803;DHT22;66993;48.256;16.422;2023-02-01T21:30:16;6.1;75.0
77803;DHT22;66993;48.256;16.422;2023-02-01T21:35:16;6.1;75.0
77803;DHT22;66993;48.256;16.422;2023-02-01T21:40:16;6.1;74.0
77803;DHT22;66993;48.256;16.422;2023-02-01T21:45:16;6.3;74.0
77803;DHT22;66993;48.256;16.422;2023-02-01T21:50:17;6.3;73.0
77803;DHT22;66993;48.256;16.422;2023-02-01T21:55:16;6.3;73.0
77803;DHT22;66993;48.256;16.422;2023-02-01T22:00:16;6.3;73.0
77803;DHT22;66993;48.256;16.422;2023-02-01T22:05:16;6.3;73.0
77803;DHT22;66993;48.256;16.422;2023-02-01T22:10:16;6.3;73.0
77803;DHT22;66993;48.256;16.422;2023-02-01T22:15:16;6.3;73.0
77803;DHT22;66993;48.256;16.422;2023-02-01T22:20:16;6.3;74.0
77803;DHT22;66993;48.256;16.422;2023-02-01T22:25:16;6.2;74.0
77803;DHT22;66993;48.256;16.422;2023-02-01T22:30:16;6.2;74.0
77803;DHT22;66993;48.256;16.422;2023-02-01T22:35:16;6.3;74.0
77803;DHT22;66993;48.256;16.422;2023-02-01T22:40:16;6.3;74.0
77803;DHT22;66993;48.256;16.422;2023-02-01T22:45:16;6.1;74.0
77803;DHT22;66993;48.256;16.422;2023-02-01T22:50:16;6.1;74.0
77803;DHT22;66993;48.256;16.422;2023-02-01T22:55:16;6.0;75.0
77803;DHT22;66993;48.256;16.422;2023-02-01T23:00:16;5.0;76.0
77803;DHT22;66993;48.256;16.422;2023-02-01T23:05:16;3.0;79.0
77803;DHT22;66993;48.256;16.422;2023-02-01T23:10:17;2.5;80.0
77803;DHT22;66993;48.256;16.422;2023-02-01T23:15:16;2.0;83.0
77803;DHT22;66993;48.256;16.422;2023-02-01T23:20:16;2.0;85.0
77803;DHT22;66993;48.256;16.422;2023-02-01T23:25:17;1.7;86.0
77803;DHT22;66993;48.256;16.422;2023-02-01T23:30:16;1.7;88.0
77803;DHT22;66993;48.256;16.422;2023-02-01T23:35:16;1.9;91.0
77803;DHT22;66993;48.256;16.422;2023-02-01T23:40:16;1.9;93.0
77803;DHT22;66993;48.256;16.422;2023-02-01T23:45:16;2.4;95.0
77803;DHT22;66993;48.256;16.422;2023-02-01T23:50:16;2.4;95.0
77803;DHT22;66993;48.256;16.422;2023-02-01T23:55:16;1.6;96.0
